Time;durP1;ratioP1;P1;durP2;ratioP2;P2;SDS_P1;SDS_P2;PMS_P1;PMS_P2;Temp;Humidity;BMP_temperature;BMP_pressure;BME280_temperature;BME280_humidity;BME280_pressure;Samples;Min_cycle;Max_cycle;Signal;HPM_P1;HPM_P2
2022/06/11 00:01:53;;;;;;;5.97;2.30;;;18.90;1.00;;;;;;5032664;28;20212;-58
2022/06/11 00:04:23;;;;;;;5.47;2.00;;;18.90;1.00;;;;;;5032775;28;20238;-61
2022/06/11 00:06:53;;;;;;;4.83;2.33;;;18.80;1.00;;;;;;5032444;28;20645;-58
2022/06/11 00:09:22;;;;;;;3.53;1.93;;;18.80;1.00;;;;;;5032926;28;20210;-61
2022/06/11 00:11:51;;;;;;;6.10;2.23;;;18.80;1.00;;;;;;5032582;28;20257;-59
2022/06/11 00:14:18;;;;;;;6.57;1.93;;;18.80;1.00;;;;;;5032500;28;20320;-58
2022/06/11 00:16:45;;;;;;;5.67;2.47;;;18.80;1.00;;;;;;5031703;28;20230;-58
2022/06/11 00:19:13;;;;;;;5.80;1.87;;;18.70;1.00;;;;;;5032793;28;20203;-56
2022/06/11 00:21:43;;;;;;;5.40;2.10;;;18.70;1.00;;;;;;5032665;28;20206;-58
2022/06/11 00:24:11;;;;;;;5.67;2.07;;;18.70;1.00;;;;;;5032374;28;20221;-61
2022/06/11 00:26:40;;;;;;;4.93;1.93;;;18.70;22.00;;;;;;5032101;28;20210;-58
2022/06/11 00:29:07;;;;;;;6.63;2.40;;;18.70;90.30;;;;;;5032003;28;20206;-60
2022/06/11 00:31:34;;;;;;;5.10;2.27;;;18.70;99.90;;;;;;5032502;28;20211;-60
2022/06/11 00:34:01;;;;;;;4.83;2.33;;;18.70;99.90;;;;;;5032178;28;20264;-60
2022/06/11 00:36:29;;;;;;;3.50;2.17;;;18.70;99.90;;;;;;5032009;28;20237;-61
2022/06/11 00:38:56;;;;;;;4.40;1.80;;;18.70;99.90;;;;;;5032058;28;20213;-60
2022/06/11 00:41:25;;;;;;;4.90;2.33;;;18.70;99.90;;;;;;5032022;28;20293;-59
2022/06/11 00:43:53;;;;;;;6.30;2.50;;;18.70;99.90;;;;;;5031530;28;20627;-61
2022/06/11 00:46:42;;;;;;;4.47;1.90;;;18.70;99.90;;;;;;5031741;28;20289;-61
2022/06/11 00:49:17;;;;;;;7.83;2.10;;;18.70;99.90;;;;;;5032170;28;20206;-61
2022/06/11 00:51:47;;;;;;;6.73;2.40;;;18.60;1.00;;;;;;5031480;28;20205;-61
2022/06/11 00:54:18;;;;;;;5.07;2.37;;;18.60;1.00;;;;;;5032227;28;20230;-60
2022/06/11 00:56:49;;;;;;;8.67;2.47;;;18.60;1.00;;;;;;5031249;28;20626;-58
2022/06/11 00:59:22;;;;;;;4.47;2.33;;;18.60;17.40;;;;;;5032097;28;20272;-58
2022/06/11 01:01:50;;;;;;;5.57;2.20;;;18.60;99.90;;;;;;5031737;28;20249;-56
2022/06/11 01:04:44;;;;;;;4.60;2.37;;;18.60;54.10;;;;;;5031871;28;20228;-57
2022/06/11 01:07:32;;;;;;;6.23;2.23;;;18.60;99.90;;;;;;5031879;28;20244;-57
2022/06/11 01:10:20;;;;;;;4.77;2.23;;;18.50;99.90;;;;;;5032194;28;20615;-58
2022/06/11 01:12:58;;;;;;;6.73;3.03;;;18.50;44.30;;;;;;5031643;28;20210;-58
2022/06/11 01:15:29;;;;;;;5.40;2.03;;;18.40;99.90;;;;;;5031655;28;20324;-59
2022/06/11 01:18:09;;;;;;;11.50;2.43;;;18.40;99.90;;;;;;5031489;28;20235;-61
2022/06/11 01:20:50;;;;;;;6.23;2.50;;;18.40;99.90;;;;;;5031583;28;20746;-61
2022/06/11 01:23:58;;;;;;;6.80;2.37;;;18.50;99.90;;;;;;5031621;28;20206;-59
2022/06/11 01:26:42;;;;;;;9.37;2.90;;;18.50;99.90;;;;;;5031935;28;20689;-59
2022/06/11 01:29:39;;;;;;;4.30;2.13;;;18.50;99.90;;;;;;5032277;28;20264;-61
2022/06/11 01:32:14;;;;;;;6.47;2.37;;;18.50;93.00;;;;;;5031970;28;20743;-57
2022/06/11 01:34:48;;;;;;;6.30;2.23;;;18.50;99.90;;;;;;5031396;28;20232;-58
2022/06/11 01:37:22;;;;;;;7.07;2.27;;;18.50;99.90;;;;;;5031255;28;20230;-57
2022/06/11 01:39:56;;;;;;;5.53;2.27;;;18.40;1.00;;;;;;5031315;28;20236;-57
2022/06/11 01:42:27;;;;;;;9.17;2.40;;;18.50;89.50;;;;;;5031566;28;20214;-58
2022/06/11 01:45:04;;;;;;;4.43;2.50;;;18.40;99.90;;;;;;5031421;28;20724;-58
2022/06/11 01:47:32;;;;;;;3.13;2.40;;;18.30;99.90;;;;;;5031065;28;20213;-61
2022/06/11 01:49:59;;;;;;;6.50;2.70;;;18.30;99.90;;;;;;5031244;28;20297;-59
2022/06/11 01:52:42;;;;;;;7.23;2.50;;;18.30;1.00;;;;;;5031157;28;20257;-58
2022/06/11 01:55:17;;;;;;;9.00;2.57;;;18.30;99.90;;;;;;5032403;28;20233;-56
2022/06/11 01:58:06;;;;;;;7.57;2.20;;;18.20;99.90;;;;;;5034567;28;20229;-56
2022/06/11 02:00:38;;;;;;;4.93;2.23;;;18.20;99.90;;;;;;5035306;28;20206;-57
2022/06/11 02:03:22;;;;;;;3.80;2.40;;;18.20;99.90;;;;;;5034811;28;20231;-55
2022/06/11 02:06:01;;;;;;;4.30;2.17;;;18.10;1.00;;;;;;5035113;28;20233;-57
2022/06/11 02:08:39;;;;;;;4.63;2.43;;;18.00;1.00;;;;;;5035083;28;20206;-56
2022/06/11 02:11:13;;;;;;;4.67;2.57;;;18.00;1.00;;;;;;5034761;28;20283;-58
2022/06/11 02:13:45;;;;;;;5.50;2.70;;;17.90;10.00;;;;;;5035047;28;20206;-56
2022/06/11 02:16:20;;;;;;;7.67;2.53;;;17.80;70.10;;;;;;5034049;28;20767;-56
2022/06/11 02:18:49;;;;;;;6.37;2.57;;;17.80;99.90;;;;;;5035041;28;20210;-58
2022/06/11 02:21:20;;;;;;;4.93;3.10;;;17.70;99.90;;;;;;5034738;28;20202;-58
2022/06/11 02:23:51;;;;;;;7.63;2.90;;;17.70;99.90;;;;;;5034575;28;20209;-57
2022/06/11 02:26:24;;;;;;;7.73;2.73;;;17.70;99.90;;;;;;5034070;28;20225;-58
2022/06/11 02:28:52;;;;;;;4.77;2.70;;;17.60;99.90;;;;;;5034627;28;20263;-58
2022/06/11 02:31:24;;;;;;;8.13;2.73;;;17.60;99.90;;;;;;5034363;28;20218;-60
2022/06/11 02:33:52;;;;;;;4.47;3.03;;;17.50;99.90;;;;;;5034514;28;20206;-58
2022/06/11 02:36:24;;;;;;;6.47;2.70;;;17.50;99.90;;;;;;5033933;28;20280;-60
2022/06/11 02:38:52;;;;;;;7.10;2.33;;;17.40;99.90;;;;;;5034584;28;20206;-59
2022/06/11 02:41:22;;;;;;;3.77;2.50;;;17.40;99.90;;;;;;5034533;28;20234;-60
2022/06/11 02:43:49;;;;;;;6.73;2.60;;;17.30;99.90;;;;;;5033953;28;20210;-61
2022/06/11 02:49:01;;;;;;;8.73;2.97;;;17.30;99.90;;;;;;5034159;28;20296;-61
2022/06/11 02:51:30;;;;;;;6.67;2.80;;;17.30;99.90;;;;;;5034406;28;20289;-61
2022/06/11 02:53:58;;;;;;;5.90;2.40;;;17.20;99.90;;;;;;5033989;28;20236;-61
2022/06/11 02:56:25;;;;;;;8.13;3.00;;;17.20;99.90;;;;;;5033912;28;20219;-60
2022/06/11 02:58:52;;;;;;;4.80;2.70;;;17.20;99.90;;;;;;5033967;28;20229;-60
2022/06/11 03:01:21;;;;;;;5.57;2.90;;;17.10;99.90;;;;;;5034040;28;20248;-58
2022/06/11 03:03:49;;;;;;;4.87;2.70;;;17.10;99.90;;;;;;5034556;28;20214;-58
2022/06/11 03:06:17;;;;;;;8.07;3.37;;;17.00;99.90;;;;;;5033384;28;20213;-56
2022/06/11 03:08:44;;;;;;;3.87;2.40;;;17.00;99.90;;;;;;5033878;28;20677;-57
2022/06/11 03:11:10;;;;;;;4.57;2.90;;;16.90;99.90;;;;;;5033710;28;20264;-60
2022/06/11 03:13:37;;;;;;;8.23;3.27;;;16.80;99.90;;;;;;5033739;28;20206;-60
2022/06/11 03:16:05;;;;;;;5.03;2.47;;;16.80;99.90;;;;;;5033025;28;20671;-53
2022/06/11 03:18:33;;;;;;;5.60;2.77;;;16.80;99.90;;;;;;5033873;28;20226;-59
2022/06/11 03:20:59;;;;;;;6.93;2.93;;;16.80;99.90;;;;;;5033704;28;20210;-59
2022/06/11 03:23:29;;;;;;;4.97;2.80;;;16.70;99.90;;;;;;5033675;28;20225;-54
2022/06/11 03:25:56;;;;;;;7.27;2.73;;;16.70;99.90;;;;;;5033114;28;20262;-57
2022/06/11 03:28:26;;;;;;;5.23;3.20;;;16.60;99.90;;;;;;5033262;28;20207;-56
2022/06/11 03:30:53;;;;;;;5.70;2.37;;;16.60;99.90;;;;;;5033758;28;20210;-58
2022/06/11 03:33:21;;;;;;;7.13;3.30;;;16.60;99.90;;;;;;5033406;28;20256;-56
2022/06/11 03:35:49;;;;;;;7.77;3.20;;;16.50;99.90;;;;;;5033268;28;20230;-55
2022/06/11 03:38:17;;;;;;;7.23;3.23;;;16.50;99.90;;;;;;5032350;28;20239;-57
2022/06/11 03:40:46;;;;;;;8.23;3.00;;;16.50;99.90;;;;;;5033195;28;20206;-58
2022/06/11 03:43:14;;;;;;;9.17;3.37;;;16.40;99.90;;;;;;5033532;28;20210;-55
2022/06/11 03:45:41;;;;;;;8.03;3.27;;;16.40;99.90;;;;;;5033208;28;20286;-57
2022/06/11 03:48:08;;;;;;;7.00;3.03;;;16.40;99.90;;;;;;5033075;28;20207;-58
2022/06/11 03:50:38;;;;;;;7.50;3.00;;;16.40;99.90;;;;;;5033026;28;20202;-56
2022/06/11 03:53:06;;;;;;;13.13;3.77;;;16.40;99.90;;;;;;5032962;28;20203;-58
2022/06/11 03:55:33;;;;;;;11.70;3.30;;;16.40;99.90;;;;;;5032935;28;20234;-56
2022/06/11 03:58:02;;;;;;;5.47;3.30;;;16.40;99.90;;;;;;5032811;28;20296;-55
2022/06/11 04:03:15;;;;;;;7.57;3.07;;;16.40;99.90;;;;;;5033068;28;20679;-56
2022/06/11 04:05:43;;;;;;;9.80;3.43;;;16.50;99.90;;;;;;5032616;28;20226;-55
2022/06/11 04:08:11;;;;;;;9.13;3.13;;;16.50;99.90;;;;;;5032607;28;20206;-58
2022/06/11 04:10:38;;;;;;;6.70;2.70;;;16.50;99.90;;;;;;5032945;28;20210;-54
2022/06/11 04:13:07;;;;;;;5.37;2.80;;;16.50;99.90;;;;;;5032505;28;20301;-59
2022/06/11 04:15:34;;;;;;;7.83;3.43;;;16.50;99.90;;;;;;5032661;28;20238;-59
2022/06/11 04:18:04;;;;;;;3.60;2.60;;;16.60;99.90;;;;;;5031540;28;20222;-58
2022/06/11 04:20:31;;;;;;;5.47;3.47;;;16.60;99.90;;;;;;5032457;28;20256;-58
2022/06/11 04:22:58;;;;;;;5.20;3.00;;;16.60;99.90;;;;;;5032459;28;20202;-60
2022/06/11 04:25:24;;;;;;;4.40;2.57;;;16.70;99.90;;;;;;5032327;28;20592;-59
2022/06/11 04:27:53;;;;;;;5.27;3.00;;;16.70;99.90;;;;;;5032051;28;20256;-56
2022/06/11 04:30:23;;;;;;;6.37;3.00;;;16.70;99.90;;;;;;5032244;28;20224;-55
2022/06/11 04:32:50;;;;;;;4.83;3.00;;;16.70;99.90;;;;;;5032282;28;20217;-57
2022/06/11 04:35:17;;;;;;;7.13;3.47;;;16.70;99.90;;;;;;5031993;28;20782;-60
2022/06/11 04:37:44;;;;;;;5.70;3.10;;;16.70;99.90;;;;;;5032136;28;20280;-58
2022/06/11 04:40:11;;;;;;;3.63;3.03;;;16.70;99.90;;;;;;5032006;28;20206;-58
2022/06/11 04:42:38;;;;;;;10.03;3.60;;;16.70;99.90;;;;;;5032243;28;20576;-58
2022/06/11 04:45:06;;;;;;;7.37;3.03;;;16.70;99.90;;;;;;5032159;28;20226;-55
2022/06/11 04:47:34;;;;;;;4.57;2.50;;;16.70;99.90;;;;;;5031585;28;20206;-60
2022/06/11 04:50:04;;;;;;;8.50;3.00;;;16.80;99.90;;;;;;5031973;28;20221;-60
2022/06/11 04:52:31;;;;;;;6.83;3.30;;;16.80;99.90;;;;;;5032011;28;20578;-58
2022/06/11 04:54:58;;;;;;;5.63;2.77;;;16.80;99.90;;;;;;5032092;28;20284;-58
2022/06/11 04:57:25;;;;;;;9.90;3.03;;;16.80;99.90;;;;;;5031499;28;20284;-55
2022/06/11 04:59:52;;;;;;;5.63;2.90;;;16.90;99.90;;;;;;5031711;28;20202;-56
2022/06/11 05:02:20;;;;;;;5.50;3.10;;;16.90;99.90;;;;;;5032017;28;20210;-55
2022/06/11 05:04:49;;;;;;;5.53;2.70;;;17.00;99.90;;;;;;5031977;28;20316;-57
2022/06/11 05:07:15;;;;;;;5.97;2.87;;;17.00;99.90;;;;;;5031695;28;20252;-58
2022/06/11 05:09:42;;;;;;;4.63;2.47;;;17.00;99.90;;;;;;5031631;28;20210;-55
2022/06/11 05:12:11;;;;;;;4.37;2.67;;;17.10;99.90;;;;;;5031854;28;20252;-58
2022/06/11 05:14:38;;;;;;;7.43;3.00;;;17.10;99.90;;;;;;5031314;28;20279;-58
2022/06/11 05:17:05;;;;;;;7.47;2.67;;;17.20;99.90;;;;;;5031640;28;20202;-55
2022/06/11 05:19:32;;;;;;;5.67;2.77;;;17.20;99.90;;;;;;5031708;28;20284;-60
2022/06/11 05:22:00;;;;;;;5.47;2.67;;;17.30;99.90;;;;;;5031381;28;20263;-53
2022/06/11 05:24:29;;;;;;;4.83;2.43;;;17.40;99.90;;;;;;5031549;28;20258;-59
2022/06/11 05:26:58;;;;;;;5.20;3.00;;;17.40;99.90;;;;;;5031353;28;20623;-58
2022/06/11 05:29:29;;;;;;;6.20;2.63;;;17.50;99.90;;;;;;5033236;28;20210;-57
2022/06/11 05:31:56;;;;;;;5.77;3.33;;;17.60;99.90;;;;;;5035891;28;20210;-58
2022/06/11 05:34:23;;;;;;;7.37;2.83;;;17.70;99.90;;;;;;5035921;28;20292;-57
2022/06/11 05:36:51;;;;;;;5.13;2.97;;;17.80;99.90;;;;;;5035020;28;20214;-59
2022/06/11 05:39:19;;;;;;;5.20;2.70;;;18.00;99.90;;;;;;5035621;28;20313;-57
2022/06/11 05:41:46;;;;;;;6.00;2.70;;;18.30;99.90;;;;;;5035319;28;20217;-60
2022/06/11 05:44:12;;;;;;;4.50;2.60;;;18.50;99.90;;;;;;5035817;28;20226;-57
2022/06/11 05:46:39;;;;;;;8.03;2.53;;;18.70;99.90;;;;;;5035409;28;20207;-58
2022/06/11 05:49:14;;;;;;;4.33;2.43;;;18.80;99.90;;;;;;5035242;28;20745;-58
2022/06/11 05:51:44;;;;;;;4.70;2.30;;;18.90;99.90;;;;;;5036111;28;20213;-60
2022/06/11 05:54:14;;;;;;;4.70;2.60;;;19.00;99.90;;;;;;5034974;28;20222;-60
2022/06/11 05:56:43;;;;;;;6.20;2.40;;;19.00;99.90;;;;;;5036015;28;20202;-60
2022/06/11 05:59:13;;;;;;;5.00;3.20;;;19.00;99.90;;;;;;5035483;28;20305;-56
2022/06/11 06:01:42;;;;;;;4.33;2.43;;;18.90;99.90;;;;;;5035424;28;20210;-57
2022/06/11 06:04:09;;;;;;;5.20;2.60;;;18.90;99.90;;;;;;5035018;28;20288;-55
2022/06/11 06:06:36;;;;;;;3.57;2.40;;;18.80;99.90;;;;;;5034713;28;20241;-60
2022/06/11 06:09:05;;;;;;;4.47;2.47;;;18.70;99.90;;;;;;5035107;28;20627;-59
2022/06/11 06:11:32;;;;;;;5.50;2.60;;;18.70;99.90;;;;;;5035102;28;20203;-57
2022/06/11 06:14:00;;;;;;;5.80;2.80;;;18.70;99.90;;;;;;5034993;28;20206;-59
2022/06/11 06:16:29;;;;;;;3.50;2.40;;;18.70;99.90;;;;;;5034626;28;20643;-59
2022/06/11 06:18:57;;;;;;;4.17;2.50;;;18.70;99.90;;;;;;5034670;28;20230;-58
2022/06/11 06:21:27;;;;;;;4.50;2.37;;;18.70;99.90;;;;;;5034537;28;20232;-59
2022/06/11 06:23:54;;;;;;;8.47;2.80;;;18.70;99.90;;;;;;5034817;28;20677;-59
2022/06/11 06:26:21;;;;;;;4.07;2.60;;;18.80;99.90;;;;;;5034894;28;20210;-59
2022/06/11 06:28:48;;;;;;;8.00;2.70;;;18.80;99.90;;;;;;5034903;28;20198;-56
2022/06/11 06:31:16;;;;;;;6.33;2.80;;;18.80;99.90;;;;;;5034781;28;20206;-57
2022/06/11 06:33:44;;;;;;;7.17;2.50;;;18.90;99.90;;;;;;5034411;28;20210;-57
2022/06/11 06:36:11;;;;;;;4.97;2.60;;;18.90;99.90;;;;;;5034030;28;20803;-52
2022/06/11 06:38:39;;;;;;;6.67;2.47;;;18.90;99.90;;;;;;5034469;28;20230;-56
2022/06/11 06:41:07;;;;;;;4.80;2.60;;;18.90;99.90;;;;;;5034104;28;20206;-59
2022/06/11 06:43:34;;;;;;;3.20;2.03;;;18.90;99.90;;;;;;5034314;28;20256;-56
2022/06/11 06:46:01;;;;;;;4.90;2.67;;;19.00;99.90;;;;;;5033992;28;20230;-55
2022/06/11 06:48:30;;;;;;;6.30;2.23;;;19.00;99.90;;;;;;5034163;28;20211;-59
2022/06/11 06:50:57;;;;;;;5.17;2.80;;;19.20;99.90;;;;;;5034316;28;20266;-53
2022/06/11 06:53:24;;;;;;;6.33;2.73;;;19.20;99.90;;;;;;5034470;28;20206;-52
2022/06/11 06:55:50;;;;;;;6.83;2.90;;;19.20;99.90;;;;;;5034125;28;20238;-57
2022/06/11 06:58:17;;;;;;;4.00;2.43;;;19.40;99.90;;;;;;5033821;28;20729;-58
2022/06/11 07:00:45;;;;;;;6.80;2.57;;;19.40;99.90;;;;;;5033808;28;20206;-56
2022/06/11 07:03:12;;;;;;;4.53;2.73;;;19.40;99.90;;;;;;5034048;28;20672;-56
2022/06/11 07:05:40;;;;;;;7.77;2.33;;;19.50;99.90;;;;;;5033604;28;20728;-56
2022/06/11 07:08:08;;;;;;;8.07;3.03;;;19.50;99.90;;;;;;5033624;28;20206;-57
2022/06/11 07:10:36;;;;;;;4.13;2.50;;;19.50;99.90;;;;;;5033797;28;20207;-56
2022/06/11 07:13:03;;;;;;;5.80;2.60;;;19.40;93.10;;;;;;5033806;28;20268;-59
2022/06/11 07:15:30;;;;;;;5.97;2.63;;;19.40;99.90;;;;;;5033561;28;20238;-55
2022/06/11 07:17:59;;;;;;;6.73;2.63;;;19.60;99.90;;;;;;5033409;28;20230;-54
2022/06/11 07:20:29;;;;;;;5.90;2.97;;;19.70;99.90;;;;;;5033746;28;20256;-52
2022/06/11 07:23:02;;;;;;;6.57;2.63;;;19.70;91.70;;;;;;5033695;28;20202;-55
2022/06/11 07:25:30;;;;;;;6.47;3.10;;;19.80;83.10;;;;;;5033615;28;20227;-56
2022/06/11 07:28:02;;;;;;;5.90;2.70;;;20.00;73.90;;;;;;5033056;28;20207;-59
2022/06/11 07:30:30;;;;;;;7.80;2.93;;;20.10;76.00;;;;;;5033892;28;20206;-57
2022/06/11 07:33:00;;;;;;;7.73;3.60;;;20.30;59.40;;;;;;5033603;28;20206;-58
2022/06/11 07:35:28;;;;;;;4.33;3.00;;;20.20;99.90;;;;;;5033581;28;20223;-57
2022/06/11 07:37:55;;;;;;;5.37;3.03;;;20.20;20.20;;;;;;5032851;28;20268;-57
2022/06/11 07:40:24;;;;;;;8.67;3.00;;;20.10;58.60;;;;;;5033063;28;20212;-54
2022/06/11 07:42:51;;;;;;;4.83;3.00;;;20.20;99.90;;;;;;5033468;28;20218;-57
2022/06/11 07:45:18;;;;;;;5.00;3.13;;;19.80;5.30;;;;;;5033160;28;20228;-56
2022/06/11 07:47:56;;;;;;;5.53;3.27;;;19.70;99.90;;;;;;5033087;28;20207;-59
2022/06/11 07:50:26;;;;;;;5.20;3.30;;;19.60;99.90;;;;;;5033068;28;20210;-61
2022/06/11 07:52:53;;;;;;;6.20;2.83;;;19.80;99.90;;;;;;5032088;28;20294;-57
2022/06/11 07:55:20;;;;;;;7.10;3.30;;;19.90;99.90;;;;;;5033204;28;20230;-56
2022/06/11 07:57:49;;;;;;;7.30;3.30;;;19.90;1.00;;;;;;5032607;28;20622;-56
2022/06/11 08:00:19;;;;;;;6.43;2.87;;;20.10;54.70;;;;;;5033325;28;20202;-59
2022/06/11 08:02:46;;;;;;;4.77;3.27;;;20.20;99.90;;;;;;5033123;28;20206;-58
2022/06/11 08:05:13;;;;;;;7.37;3.23;;;20.40;93.40;;;;;;5032830;28;20272;-58
2022/06/11 08:07:40;;;;;;;7.87;4.00;;;20.50;99.90;;;;;;5032330;28;20260;-58
2022/06/11 08:10:07;;;;;;;6.97;3.73;;;20.60;1.00;;;;;;5033195;28;20214;-58
2022/06/11 08:12:33;;;;;;;5.80;3.73;;;20.60;99.90;;;;;;5032755;28;20260;-58
2022/06/11 08:15:01;;;;;;;6.47;3.97;;;20.70;99.90;;;;;;5032487;28;20384;-59
2022/06/11 08:17:29;;;;;;;8.67;4.43;;;21.00;99.90;;;;;;5032249;28;20217;-59
2022/06/11 08:19:56;;;;;;;5.20;4.07;;;21.20;1.00;;;;;;5031976;28;20272;-58
2022/06/11 08:22:23;;;;;;;7.03;4.53;;;21.30;99.90;;;;;;5032682;28;20270;-59
2022/06/11 08:24:50;;;;;;;8.63;4.03;;;21.60;1.00;;;;;;5032267;28;20223;-59
2022/06/11 08:27:17;;;;;;;8.70;5.73;;;21.70;1.00;;;;;;5032110;28;20210;-64
2022/06/11 08:29:44;;;;;;;7.20;4.97;;;21.60;99.90;;;;;;5032340;28;20202;-59
2022/06/11 08:32:12;;;;;;;6.63;4.83;;;21.50;99.90;;;;;;5032386;28;20206;-60
2022/06/11 08:34:41;;;;;;;10.30;5.93;;;21.40;99.90;;;;;;5031899;28;20256;-60
2022/06/11 08:37:08;;;;;;;9.13;6.23;;;21.30;1.00;;;;;;5031657;28;20217;-59
2022/06/11 08:39:36;;;;;;;8.30;5.20;;;21.30;1.00;;;;;;5031986;28;20226;-59
2022/06/11 08:42:04;;;;;;;10.40;5.13;;;21.40;99.90;;;;;;5032008;28;20207;-59
2022/06/11 08:44:36;;;;;;;6.93;4.63;;;21.40;1.00;;;;;;5032155;28;20230;-59
2022/06/11 08:47:07;;;;;;;12.93;4.87;;;21.50;99.90;;;;;;5031504;28;20758;-59
2022/06/11 08:49:43;;;;;;;9.97;4.73;;;21.50;99.90;;;;;;5032241;28;20202;-59
2022/06/11 08:52:13;;;;;;;5.60;4.23;;;21.60;99.90;;;;;;5031961;28;20206;-59
2022/06/11 08:54:42;;;;;;;11.47;5.10;;;21.70;99.80;;;;;;5032074;28;20230;-59
2022/06/11 08:57:16;;;;;;;4.97;4.13;;;21.80;99.90;;;;;;5031603;28;20202;-59
2022/06/11 09:00:06;;;;;;;7.23;3.80;;;21.90;27.30;;;;;;5031704;28;20280;-59
2022/06/11 09:02:52;;;;;;;7.87;3.87;;;22.00;72.40;;;;;;5032128;28;20210;-60
2022/06/11 09:05:41;;;;;;;7.90;4.03;;;22.10;11.50;;;;;;5031599;28;20226;-60
2022/06/11 09:08:21;;;;;;;4.57;3.80;;;22.10;1.00;;;;;;5031722;28;20206;-59
2022/06/11 09:11:09;;;;;;;6.80;4.00;;;22.10;5.30;;;;;;5032338;28;20588;-60
2022/06/11 09:13:57;;;;;;;7.93;4.53;;;22.10;1.00;;;;;;5032119;28;20205;-60
2022/06/11 09:16:35;;;;;;;7.70;4.60;;;21.90;1.00;;;;;;5031531;28;20217;-59
2022/06/11 09:19:17;;;;;;;7.67;4.57;;;22.00;1.00;;;;;;5032081;28;20226;-59
2022/06/11 09:21:58;;;;;;;5.73;4.03;;;22.10;10.10;;;;;;5032065;28;20210;-62
2022/06/11 09:24:42;;;;;;;6.30;3.73;;;22.50;1.00;;;;;;5031723;28;20272;-58
2022/06/11 09:27:18;;;;;;;6.27;4.00;;;22.50;1.00;;;;;;5024825;28;20240;-59
2022/06/11 09:30:02;;;;;;;6.60;4.07;;;22.30;1.00;;;;;;5030511;28;20202;-60
2022/06/11 09:32:31;;;;;;;5.27;3.63;;;22.50;1.00;;;;;;5031467;28;20229;-63
2022/06/11 09:35:05;;;;;;;4.53;3.43;;;22.50;1.00;;;;;;5031266;28;20280;-59
2022/06/11 09:37:39;;;;;;;6.67;3.60;;;22.50;1.00;;;;;;5031068;28;20206;-60
2022/06/11 09:40:18;;;;;;;3.47;2.83;;;22.60;1.00;;;;;;5031044;28;20226;-59
2022/06/11 09:42:57;;;;;;;6.73;3.57;;;22.70;1.00;;;;;;5031156;28;20217;-59
2022/06/11 09:45:31;;;;;;;5.37;3.43;;;22.60;11.80;;;;;;5031211;28;20234;-60
2022/06/11 09:48:11;;;;;;;4.23;2.70;;;22.40;1.00;;;;;;5031185;28;20252;-58
2022/06/11 09:50:44;;;;;;;5.47;3.07;;;22.60;1.00;;;;;;5031020;28;20742;-59
2022/06/11 09:53:31;;;;;;;4.83;3.10;;;22.60;1.00;;;;;;5031591;28;20214;-60
2022/06/11 09:56:03;;;;;;;6.60;2.37;;;22.80;99.90;;;;;;5030524;28;20613;-59
2022/06/11 09:58:47;;;;;;;4.97;2.40;;;22.90;99.90;;;;;;5031557;28;20256;-59
2022/06/11 10:01:17;;;;;;;7.90;2.40;;;22.80;1.00;;;;;;5031073;28;20666;-59
2022/06/11 10:03:52;;;;;;;2.80;2.00;;;22.90;1.00;;;;;;5030979;28;20210;-59
2022/06/11 10:06:24;;;;;;;5.47;2.50;;;22.80;1.00;;;;;;5030026;28;20672;-60
2022/06/11 10:08:56;;;;;;;8.67;2.50;;;22.90;1.00;;;;;;5031001;28;20202;-59
2022/06/11 10:11:28;;;;;;;4.67;2.30;;;23.10;1.00;;;;;;5030721;28;20260;-59
2022/06/11 10:14:28;;;;;;;4.40;2.30;;;22.70;1.00;;;;;;5030823;28;20268;-59
2022/06/11 10:16:51;;;;;;;4.13;2.20;;;22.40;1.00;;;;;;5032047;28;20698;-59
2022/06/11 10:19:26;;;;;;;4.57;2.57;;;22.30;1.00;;;;;;5034360;28;20222;-60
2022/06/11 10:21:58;;;;;;;3.83;2.20;;;22.30;1.00;;;;;;5035095;28;20283;-60
2022/06/11 10:24:29;;;;;;;4.40;2.27;;;22.60;92.20;;;;;;5035248;28;20230;-60
2022/06/11 10:27:02;;;;;;;5.57;2.23;;;23.00;1.00;;;;;;5034694;28;20644;-58
2022/06/11 10:29:36;;;;;;;3.30;2.03;;;23.10;1.00;;;;;;5034469;28;20210;-59
2022/06/11 10:32:09;;;;;;;3.83;2.33;;;23.20;1.00;;;;;;5034884;28;20206;-57
2022/06/11 10:34:41;;;;;;;4.80;2.60;;;23.00;1.00;;;;;;5034239;28;20226;-57
2022/06/11 10:37:13;;;;;;;4.10;2.67;;;22.50;1.00;;;;;;5033857;28;20256;-58
2022/06/11 10:39:47;;;;;;;5.20;2.63;;;22.50;1.00;;;;;;5033822;28;20229;-56
2022/06/11 10:42:18;;;;;;;3.53;2.87;;;22.80;1.00;;;;;;5033888;28;20206;-59
2022/06/11 10:44:48;;;;;;;3.77;2.73;;;23.00;1.00;;;;;;5033993;28;20656;-58
2022/06/11 10:47:18;;;;;;;2.87;2.57;;;23.00;1.00;;;;;;5033541;28;20210;-58
2022/06/11 10:49:46;;;;;;;3.67;2.53;;;23.20;1.00;;;;;;5033742;28;20210;-57
2022/06/11 10:52:26;;;;;;;6.20;2.63;;;23.30;1.00;;;;;;5033982;28;20245;-59
2022/06/11 10:54:54;;;;;;;3.53;2.63;;;23.60;1.00;;;;;;5034070;28;20293;-59
2022/06/11 10:57:25;;;;;;;6.67;2.50;;;23.90;1.00;;;;;;5033509;28;20214;-60
2022/06/11 10:59:59;;;;;;;4.77;2.40;;;24.20;1.00;;;;;;5033433;28;20316;-58
2022/06/11 11:02:29;;;;;;;3.73;2.70;;;24.20;99.90;;;;;;5033580;28;20210;-60
2022/06/11 11:04:59;;;;;;;8.73;2.30;;;24.00;1.00;;;;;;5033447;28;20226;-59
2022/06/11 11:07:30;;;;;;;5.13;2.30;;;23.90;99.90;;;;;;5033488;28;20213;-60
2022/06/11 11:10:05;;;;;;;4.93;2.37;;;24.20;99.90;;;;;;5033435;28;20357;-59
2022/06/11 11:12:35;;;;;;;7.03;3.63;;;24.20;99.90;;;;;;5033483;28;20645;-60
2022/06/11 11:15:12;;;;;;;6.07;3.30;;;24.30;99.90;;;;;;5033128;28;20321;-61
2022/06/11 11:17:46;;;;;;;3.20;2.17;;;24.60;99.90;;;;;;5033552;28;20206;-60
2022/06/11 11:20:32;;;;;;;7.10;2.60;;;24.60;99.90;;;;;;5033315;28;20233;-65
2022/06/11 11:23:05;;;;;;;7.33;2.63;;;24.60;99.90;;;;;;5032952;28;20214;-66
2022/06/11 11:25:39;;;;;;;4.27;2.57;;;24.80;99.90;;;;;;5033153;28;20766;-65
2022/06/11 11:28:15;;;;;;;8.40;3.97;;;24.60;99.90;;;;;;5032844;28;20214;-66
2022/06/11 11:30:42;;;;;;;6.43;2.63;;;24.30;99.90;;;;;;5033451;28;20264;-65
2022/06/11 11:33:24;;;;;;;5.20;2.73;;;24.20;99.90;;;;;;5033166;28;20207;-65
2022/06/11 11:36:01;;;;;;;5.27;2.60;;;24.20;99.90;;;;;;5033073;28;20234;-62
2022/06/11 11:38:28;;;;;;;5.13;3.23;;;24.30;99.90;;;;;;5033230;28;20560;-63
2022/06/11 11:40:59;;;;;;;3.43;2.40;;;24.30;99.90;;;;;;5032499;28;20320;-62
2022/06/11 11:43:38;;;;;;;3.03;2.27;;;24.30;99.90;;;;;;5033166;28;20206;-63
2022/06/11 11:46:11;;;;;;;4.80;2.40;;;24.50;99.90;;;;;;5032335;28;20226;-62
2022/06/11 11:48:45;;;;;;;2.63;2.07;;;24.60;99.90;;;;;;5033032;28;20268;-62
2022/06/11 11:51:24;;;;;;;5.27;2.60;;;24.80;99.90;;;;;;5032371;28;20210;-62
2022/06/11 11:53:55;;;;;;;4.73;3.00;;;25.00;99.90;;;;;;5032514;28;20688;-63
2022/06/11 11:56:28;;;;;;;4.83;2.40;;;24.90;99.90;;;;;;5032154;28;20647;-63
2022/06/11 11:58:57;;;;;;;3.93;2.77;;;24.80;99.90;;;;;;5032377;28;20785;-64
2022/06/11 12:01:26;;;;;;;4.33;2.53;;;24.80;99.90;;;;;;5032356;28;20256;-64
2022/06/11 12:04:02;;;;;;;4.23;2.53;;;24.00;99.90;;;;;;5032650;28;20206;-64
2022/06/11 12:06:32;;;;;;;3.57;2.57;;;23.90;99.90;;;;;;5032299;28;20293;-63
2022/06/11 12:09:02;;;;;;;5.10;2.60;;;23.70;99.90;;;;;;5032111;28;20214;-64
2022/06/11 12:11:36;;;;;;;5.57;2.43;;;24.10;99.90;;;;;;5032290;28;20825;-65
2022/06/11 12:14:11;;;;;;;3.13;2.10;;;24.20;99.90;;;;;;5032374;28;20213;-63
2022/06/11 12:16:41;;;;;;;3.43;2.30;;;24.40;99.90;;;;;;5032094;28;20643;-63
2022/06/11 12:19:16;;;;;;;3.63;2.10;;;24.60;99.90;;;;;;5032100;28;20214;-63
2022/06/11 12:21:44;;;;;;;3.27;2.23;;;24.90;99.90;;;;;;5031853;28;20209;-63
2022/06/11 12:24:14;;;;;;;3.60;2.50;;;24.70;99.90;;;;;;5032456;28;20226;-63
2022/06/11 12:26:47;;;;;;;3.97;2.57;;;24.90;99.90;;;;;;5031759;28;20206;-63
2022/06/11 12:29:18;;;;;;;5.77;2.20;;;25.00;99.90;;;;;;5031992;28;20206;-63
2022/06/11 12:31:44;;;;;;;4.17;1.73;;;25.30;99.90;;;;;;5031621;28;20252;-63
2022/06/11 12:34:15;;;;;;;2.40;2.10;;;25.40;99.90;;;;;;5031860;28;20782;-62
2022/06/11 12:36:55;;;;;;;3.63;2.17;;;25.40;99.90;;;;;;5031158;28;20221;-64
2022/06/11 12:39:34;;;;;;;3.87;1.90;;;25.30;99.90;;;;;;5031330;28;20221;-63
2022/06/11 12:42:10;;;;;;;3.63;2.13;;;25.20;99.90;;;;;;5031879;28;20221;-63
2022/06/11 12:44:47;;;;;;;3.60;1.80;;;24.90;99.90;;;;;;5030948;28;20225;-64
2022/06/11 12:47:28;;;;;;;3.43;2.10;;;24.90;99.90;;;;;;5031504;28;20210;-64
2022/06/11 12:50:06;;;;;;;3.40;1.90;;;24.60;99.90;;;;;;5031084;28;20198;-62
2022/06/11 12:52:40;;;;;;;3.00;2.00;;;25.00;99.90;;;;;;5032044;28;20229;-62
2022/06/11 12:55:28;;;;;;;3.33;2.13;;;24.60;99.90;;;;;;5031755;28;20230;-63
2022/06/11 12:58:02;;;;;;;6.10;2.57;;;24.50;99.90;;;;;;5031347;28;20206;-62
2022/06/11 13:00:43;;;;;;;4.53;2.10;;;24.50;99.90;;;;;;5031112;28;20227;-63
2022/06/11 13:03:44;;;;;;;3.33;1.93;;;24.40;99.90;;;;;;5031434;28;20206;-64
2022/06/11 13:06:34;;;;;;;6.70;2.03;;;24.20;99.90;;;;;;5030896;28;20241;-63
2022/06/11 13:09:10;;;;;;;2.67;1.67;;;24.20;99.90;;;;;;5031321;28;20202;-66
2022/06/11 13:11:58;;;;;;;4.37;2.10;;;24.60;99.90;;;;;;5031030;28;20206;-62
2022/06/11 13:14:45;;;;;;;3.53;1.80;;;25.00;99.90;;;;;;5031482;28;20230;-62
2022/06/11 13:17:20;;;;;;;5.20;2.00;;;25.10;99.90;;;;;;5031244;28;20206;-62